Time;durP1;ratioP1;P1;durP2;ratioP2;P2;SDS_P1;SDS_P2;PMS_P1;PMS_P2;Temp;Humidity;BMP_temperature;BMP_pressure;BME280_temperature;BME280_humidity;BME280_pressure;Samples;Min_cycle;Max_cycle;Signal;HPM_P1;HPM_P2
2022/12/14 00:00:51;;;;;;;;;;;2.10;79.30;;;;;;5042914;28;87108;-40
2022/12/14 00:03:16;;;;;;;;;;;2.10;79.40;;;;;;5042813;28;87380;-40
2022/12/14 00:05:42;;;;;;;;;;;2.10;79.40;;;;;;5042567;28;88327;-39
2022/12/14 00:08:08;;;;;;;;;;;2.10;79.20;;;;;;5045685;28;87113;-39
2022/12/14 00:10:35;;;;;;;;;;;2.10;79.50;;;;;;5042145;28;88107;-40
2022/12/14 00:13:01;;;;;;;;;;;2.10;79.40;;;;;;5042625;28;86991;-37
2022/12/14 00:15:26;;;;;;;;;;;2.10;79.50;;;;;;5042859;28;87857;-39
2022/12/14 00:17:52;;;;;;;;;;;2.10;79.50;;;;;;5042195;28;88496;-40
2022/12/14 00:20:17;;;;;;;;;;;2.10;79.30;;;;;;5042597;28;87103;-40
2022/12/14 00:22:43;;;;;;;;;;;2.10;79.40;;;;;;5042044;28;89066;-37
2022/12/14 00:25:08;;;;;;;;;;;2.10;79.40;;;;;;5042290;28;88336;-40
2022/12/14 00:27:34;;;;;;;;;;;2.10;79.50;;;;;;5042226;28;87683;-40
2022/12/14 00:30:00;;;;;;;;;;;2.10;79.40;;;;;;5045127;28;87337;-40
2022/12/14 00:32:26;;;;;;;;;;;2.10;79.70;;;;;;5042500;28;86873;-37
2022/12/14 00:34:51;;;;;;;;;;;2.10;79.40;;;;;;5042402;28;87247;-40
2022/12/14 00:37:17;;;;;;;;;;;2.00;79.50;;;;;;5042110;28;88064;-38
2022/12/14 00:39:42;;;;;;;;;;;2.00;79.40;;;;;;5042683;28;86327;-40
2022/12/14 00:42:08;;;;;;;;;;;2.00;79.40;;;;;;5024054;28;88650;-40
2022/12/14 00:44:33;;;;;;;;;;;2.10;79.60;;;;;;5041776;28;88006;-40
2022/12/14 00:46:59;;;;;;;;;;;2.00;79.50;;;;;;5041574;28;88092;-40
2022/12/14 00:49:24;;;;;;;;;;;2.00;79.60;;;;;;5044656;28;87469;-39
2022/12/14 00:51:50;;;;;;;;;;;2.00;79.60;;;;;;5042117;28;87306;-40
2022/12/14 00:54:16;;;;;;;;;;;2.00;79.60;;;;;;5042214;28;86968;-39
2022/12/14 00:56:41;;;;;;;;;;;2.00;79.60;;;;;;5041696;28;87952;-40
2022/12/14 00:59:07;;;;;;;;;;;2.00;79.50;;;;;;5042297;28;87498;-40
2022/12/14 01:01:32;;;;;;;;;;;2.00;79.50;;;;;;5042304;28;88336;-40
2022/12/14 01:04:16;;;;;;;;;;;2.00;80.10;;;;;;5044964;27;87243;-40
2022/12/14 01:06:45;;;;;;;;;;;2.00;79.40;;;;;;5045589;28;87025;-40
2022/12/14 01:09:10;;;;;;;;;;;2.00;79.60;;;;;;5045094;28;88678;-39
2022/12/14 01:11:36;;;;;;;;;;;2.00;79.70;;;;;;5047533;27;89016;-39
2022/12/14 01:14:02;;;;;;;;;;;2.00;79.70;;;;;;5045381;28;87239;-40
2022/12/14 01:16:27;;;;;;;;;;;2.00;79.60;;;;;;5045072;28;88011;-40
2022/12/14 01:18:53;;;;;;;;;;;2.00;79.70;;;;;;5045120;28;87076;-39
2022/12/14 01:21:19;;;;;;;;;;;2.00;79.60;;;;;;5045282;28;88300;-40
2022/12/14 01:23:45;;;;;;;;;;;2.00;79.60;;;;;;5044856;28;87822;-40
2022/12/14 01:26:12;;;;;;;;;;;2.00;79.80;;;;;;5044953;28;87145;-40
2022/12/14 01:28:38;;;;;;;;;;;2.00;79.70;;;;;;5045618;28;87682;-39
2022/12/14 01:31:05;;;;;;;;;;;2.00;79.80;;;;;;5044899;28;88195;-40
2022/12/14 01:33:30;;;;;;;;;;;2.00;79.70;;;;;;5047892;28;87103;-40
2022/12/14 01:35:56;;;;;;;;;;;2.00;79.70;;;;;;5044045;28;89159;-40
2022/12/14 01:38:21;;;;;;;;;;;2.00;79.70;;;;;;5045074;28;86960;-40
2022/12/14 01:40:46;;;;;;;;;;;2.00;79.70;;;;;;5044684;28;86909;-40
2022/12/14 01:43:13;;;;;;;;;;;2.00;79.70;;;;;;5044625;28;88042;-40
2022/12/14 01:45:40;;;;;;;;;;;1.90;79.60;;;;;;5044544;28;87167;-40
2022/12/14 01:48:10;;;;;;;;;;;1.90;79.70;;;;;;5044900;27;87666;-40
2022/12/14 01:50:38;;;;;;;;;;;2.00;79.80;;;;;;5044161;28;88136;-39
2022/12/14 01:53:06;;;;;;;;;;;1.90;79.50;;;;;;5044721;27;86378;-40
2022/12/14 01:55:37;;;;;;;;;;;2.00;79.70;;;;;;5047289;28;87055;-39
2022/12/14 01:58:11;;;;;;;;;;;1.90;79.60;;;;;;5026270;28;87151;-40
2022/12/14 02:00:37;;;;;;;;;;;1.90;79.60;;;;;;5044081;28;88380;-39
2022/12/14 02:03:07;;;;;;;;;;;1.90;79.70;;;;;;5044346;28;88282;-39
2022/12/14 02:05:34;;;;;;;;;;;1.90;79.50;;;;;;5044259;28;87126;-39
2022/12/14 02:08:00;;;;;;;;;;;1.90;79.80;;;;;;5044228;28;89374;-40
2022/12/14 02:10:26;;;;;;;;;;;1.90;79.70;;;;;;5044242;27;88110;-39
2022/12/14 02:12:56;;;;;;;;;;;1.90;79.90;;;;;;5044344;28;87195;-40
2022/12/14 02:15:23;;;;;;;;;;;1.90;79.70;;;;;;5043957;27;87450;-39
2022/12/14 02:17:49;;;;;;;;;;;1.90;79.80;;;;;;5047286;28;87853;-39
2022/12/14 02:20:15;;;;;;;;;;;1.90;79.80;;;;;;5044105;28;88224;-39
2022/12/14 02:22:46;;;;;;;;;;;1.90;79.90;;;;;;5044025;28;88096;-39
2022/12/14 02:25:30;;;;;;;;;;;1.90;79.90;;;;;;5043617;28;88206;-39
2022/12/14 02:27:55;;;;;;;;;;;1.90;79.70;;;;;;5044346;27;88217;-39
2022/12/14 02:30:22;;;;;;;;;;;1.90;79.80;;;;;;5044028;28;88031;-39
2022/12/14 02:33:06;;;;;;;;;;;1.90;79.90;;;;;;5043949;28;87002;-39
2022/12/14 02:35:40;;;;;;;;;;;1.90;79.80;;;;;;5044221;28;87326;-39
2022/12/14 02:38:21;;;;;;;;;;;1.90;79.90;;;;;;5043790;28;88029;-39
2022/12/14 02:40:52;;;;;;;;;;;1.90;79.90;;;;;;5046901;28;87157;-39
2022/12/14 02:43:18;;;;;;;;;;;1.90;79.80;;;;;;5043779;28;87472;-39
2022/12/14 02:45:54;;;;;;;;;;;1.80;79.80;;;;;;5043994;28;87094;-39
2022/12/14 02:48:23;;;;;;;;;;;1.90;79.90;;;;;;5043967;28;88757;-39
2022/12/14 02:51:03;;;;;;;;;;;1.90;79.80;;;;;;5042237;28;89681;-39
2022/12/14 02:53:38;;;;;;;;;;;1.80;79.90;;;;;;5043842;28;87105;-39
2022/12/14 02:56:07;;;;;;;;;;;1.80;79.90;;;;;;5043960;28;87249;-39
2022/12/14 02:58:37;;;;;;;;;;;1.90;80.00;;;;;;5043218;28;88012;-39
2022/12/14 03:01:04;;;;;;;;;;;1.80;80.00;;;;;;5046875;28;87001;-39
2022/12/14 03:03:29;;;;;;;;;;;1.80;79.90;;;;;;5043308;28;88090;-39
2022/12/14 03:05:59;;;;;;;;;;;1.80;80.00;;;;;;5043641;28;87152;-39
2022/12/14 03:08:25;;;;;;;;;;;1.80;80.00;;;;;;5043757;28;86500;-39
2022/12/14 03:10:56;;;;;;;;;;;1.80;79.90;;;;;;5043360;28;87888;-39
2022/12/14 03:13:40;;;;;;;;;;;1.80;79.90;;;;;;5043296;28;87169;-39
2022/12/14 03:16:13;;;;;;;;;;;1.80;79.90;;;;;;5042765;28;87817;-39
2022/12/14 03:18:46;;;;;;;;;;;1.80;79.90;;;;;;5042920;28;87356;-39
2022/12/14 03:21:13;;;;;;;;;;;1.80;79.80;;;;;;5043280;28;87106;-39
2022/12/14 03:23:40;;;;;;;;;;;1.80;79.90;;;;;;5045763;28;87501;-39
2022/12/14 03:26:25;;;;;;;;;;;1.80;80.00;;;;;;5042323;27;87159;-39
2022/12/14 03:28:53;;;;;;;;;;;1.80;80.40;;;;;;5043132;28;87308;-39
2022/12/14 03:31:24;;;;;;;;;;;1.80;79.80;;;;;;5042384;28;88001;-39
2022/12/14 03:33:51;;;;;;;;;;;1.80;80.00;;;;;;5043607;28;86284;-39
2022/12/14 03:36:20;;;;;;;;;;;1.80;80.00;;;;;;5043198;27;87043;-39
2022/12/14 03:38:49;;;;;;;;;;;1.80;79.90;;;;;;5042632;28;88240;-39
2022/12/14 03:41:14;;;;;;;;;;;1.80;80.00;;;;;;5042041;28;88062;-39
2022/12/14 03:43:43;;;;;;;;;;;1.80;80.00;;;;;;5043041;28;87408;-39
2022/12/14 03:46:17;;;;;;;;;;;1.80;80.00;;;;;;5045495;27;88176;-39
2022/12/14 03:48:48;;;;;;;;;;;1.80;80.10;;;;;;5042846;28;87877;-39
2022/12/14 03:51:21;;;;;;;;;;;1.80;80.00;;;;;;5042364;28;88170;-39
2022/12/14 03:53:51;;;;;;;;;;;1.80;80.00;;;;;;5042682;28;87035;-39
2022/12/14 03:56:35;;;;;;;;;;;1.80;80.00;;;;;;5042638;28;88576;-39
2022/12/14 03:59:16;;;;;;;;;;;1.70;80.10;;;;;;5042693;28;88597;-39
2022/12/14 04:01:42;;;;;;;;;;;1.70;80.10;;;;;;5042643;28;87097;-39
2022/12/14 04:04:22;;;;;;;;;;;1.70;80.00;;;;;;5042789;28;87355;-39
2022/12/14 04:06:58;;;;;;;;;;;1.70;80.10;;;;;;5041574;28;89108;-39
2022/12/14 04:09:38;;;;;;;;;;;1.70;80.10;;;;;;5045916;28;87228;-39
2022/12/14 04:20:48;;;;;;;;;;;1.70;80.10;;;;;;5024951;28;87434;-39
2022/12/14 04:26:03;;;;;;;;;;;1.70;80.00;;;;;;5042329;28;87131;-39
2022/12/14 04:26:05;;;;;;;;;;;1.70;80.00;;;;;;5042785;28;88293;-39
2022/12/14 04:31:19;;;;;;;;;;;1.70;80.10;;;;;;5042429;28;86979;-39
2022/12/14 04:33:48;;;;;;;;;;;1.70;80.20;;;;;;5044396;28;88449;-39
2022/12/14 04:36:16;;;;;;;;;;;1.70;80.30;;;;;;5042017;28;87166;-39
2022/12/14 04:38:42;;;;;;;;;;;1.70;80.20;;;;;;5044690;27;87081;-39
2022/12/14 04:41:10;;;;;;;;;;;1.70;80.20;;;;;;5045336;28;88030;-39
2022/12/14 04:43:37;;;;;;;;;;;1.70;80.30;;;;;;5045715;28;87098;-39
2022/12/14 04:46:14;;;;;;;;;;;1.70;80.20;;;;;;5045785;28;87389;-39
2022/12/14 04:48:58;;;;;;;;;;;1.70;80.30;;;;;;5045017;28;88659;-39
2022/12/14 04:51:37;;;;;;;;;;;1.70;80.30;;;;;;5046261;28;86201;-39
2022/12/14 04:54:23;;;;;;;;;;;1.70;80.20;;;;;;5045541;28;87373;-39
2022/12/14 04:56:54;;;;;;;;;;;1.70;80.10;;;;;;5047120;28;89098;-39
2022/12/14 04:59:19;;;;;;;;;;;1.70;80.30;;;;;;5045231;28;87925;-39
2022/12/14 05:01:51;;;;;;;;;;;1.70;80.20;;;;;;5045258;28;88058;-39
2022/12/14 05:04:24;;;;;;;;;;;1.70;80.40;;;;;;5045685;28;86976;-39
2022/12/14 05:06:52;;;;;;;;;;;1.70;80.30;;;;;;5045457;28;88697;-39
2022/12/14 05:09:23;;;;;;;;;;;1.70;80.40;;;;;;5045649;28;88063;-39
2022/12/14 05:12:12;;;;;;;;;;;1.70;80.40;;;;;;5045183;28;87000;-39
2022/12/14 05:14:49;;;;;;;;;;;1.70;80.30;;;;;;5045280;28;88857;-39
2022/12/14 05:17:15;;;;;;;;;;;1.70;80.30;;;;;;5048352;28;87550;-39
2022/12/14 05:19:44;;;;;;;;;;;1.70;80.30;;;;;;5045565;28;87003;-39
2022/12/14 05:22:10;;;;;;;;;;;1.70;80.30;;;;;;5044869;28;88019;-39
2022/12/14 05:24:35;;;;;;;;;;;1.70;80.40;;;;;;5044586;28;87822;-39
2022/12/14 05:27:01;;;;;;;;;;;1.70;80.30;;;;;;5045134;28;89490;-39
2022/12/14 05:29:27;;;;;;;;;;;1.70;80.40;;;;;;5044816;28;87880;-39
2022/12/14 05:31:52;;;;;;;;;;;1.60;80.40;;;;;;5045205;28;87093;-38
2022/12/14 05:34:18;;;;;;;;;;;1.70;80.30;;;;;;5044884;28;88658;-39
2022/12/14 05:36:43;;;;;;;;;;;1.70;80.40;;;;;;5044702;28;88003;-39
2022/12/14 05:39:09;;;;;;;;;;;1.60;80.30;;;;;;5047504;28;87097;-39
2022/12/14 05:41:34;;;;;;;;;;;1.70;80.50;;;;;;5045128;28;87449;-39
2022/12/14 05:43:59;;;;;;;;;;;1.60;80.40;;;;;;5045060;28;87075;-39
2022/12/14 05:46:25;;;;;;;;;;;1.60;80.30;;;;;;5045140;28;87497;-39
2022/12/14 05:48:50;;;;;;;;;;;1.60;80.90;;;;;;5043119;27;89179;-39
2022/12/14 05:51:16;;;;;;;;;;;1.60;80.20;;;;;;5044099;28;87108;-39
2022/12/14 05:53:41;;;;;;;;;;;1.60;80.30;;;;;;5044599;28;88254;-39
2022/12/14 05:56:08;;;;;;;;;;;1.60;80.40;;;;;;5044494;28;88206;-39
2022/12/14 05:58:34;;;;;;;;;;;1.60;80.30;;;;;;5044620;28;87461;-39
2022/12/14 06:01:00;;;;;;;;;;;1.60;80.40;;;;;;5047314;28;87319;-39
2022/12/14 06:03:26;;;;;;;;;;;1.60;80.50;;;;;;5044697;28;86969;-39
2022/12/14 06:05:52;;;;;;;;;;;1.60;80.20;;;;;;5045225;28;86825;-39
2022/12/14 06:08:17;;;;;;;;;;;1.60;80.30;;;;;;5044238;28;88019;-39
2022/12/14 06:10:43;;;;;;;;;;;1.60;80.20;;;;;;5044634;28;86976;-39
2022/12/14 06:13:08;;;;;;;;;;;1.60;80.20;;;;;;5043759;28;88084;-39
2022/12/14 06:15:33;;;;;;;;;;;1.60;80.30;;;;;;5044218;28;88137;-39
2022/12/14 06:17:59;;;;;;;;;;;1.60;80.40;;;;;;5044337;28;87089;-39
2022/12/14 06:20:26;;;;;;;;;;;1.60;80.40;;;;;;5044479;28;87387;-39
2022/12/14 06:22:53;;;;;;;;;;;1.60;80.40;;;;;;5046807;28;87954;-39
2022/12/14 06:25:18;;;;;;;;;;;1.60;80.50;;;;;;5025902;28;90551;-39
2022/12/14 06:27:44;;;;;;;;;;;1.60;80.50;;;;;;5043845;28;88151;-39
2022/12/14 06:30:10;;;;;;;;;;;1.60;80.50;;;;;;5044664;28;86288;-39
2022/12/14 06:32:36;;;;;;;;;;;1.60;80.50;;;;;;5044273;28;87041;-39
2022/12/14 06:35:01;;;;;;;;;;;1.60;80.40;;;;;;5043938;28;87887;-39
2022/12/14 06:37:27;;;;;;;;;;;1.60;80.40;;;;;;5043312;28;88053;-39
2022/12/14 06:39:52;;;;;;;;;;;1.60;80.40;;;;;;5043629;28;88481;-39
2022/12/14 06:42:18;;;;;;;;;;;1.60;80.40;;;;;;5043782;28;88023;-39
2022/12/14 06:44:43;;;;;;;;;;;1.60;80.30;;;;;;5046900;28;87170;-39
2022/12/14 06:47:09;;;;;;;;;;;1.60;80.30;;;;;;5043999;28;88138;-39
2022/12/14 06:49:34;;;;;;;;;;;1.60;80.40;;;;;;5043385;28;86808;-39
2022/12/14 06:52:00;;;;;;;;;;;1.60;80.30;;;;;;5043818;28;87411;-39
2022/12/14 06:54:25;;;;;;;;;;;1.60;80.40;;;;;;5043895;28;87439;-39
2022/12/14 06:56:51;;;;;;;;;;;1.60;80.40;;;;;;5043886;28;87129;-39
2022/12/14 06:59:16;;;;;;;;;;;1.60;80.50;;;;;;5043753;28;87369;-39
2022/12/14 07:01:42;;;;;;;;;;;1.60;80.50;;;;;;5042584;27;88944;-39
2022/12/14 07:04:08;;;;;;;;;;;1.60;80.40;;;;;;5043705;28;87146;-39
2022/12/14 07:06:35;;;;;;;;;;;1.60;80.40;;;;;;5045883;28;88800;-39
2022/12/14 07:09:01;;;;;;;;;;;1.60;80.30;;;;;;5043630;28;86991;-39
2022/12/14 07:11:27;;;;;;;;;;;1.60;80.30;;;;;;5043539;28;87339;-39
2022/12/14 07:13:53;;;;;;;;;;;1.60;80.40;;;;;;5043208;28;88109;-39
2022/12/14 07:16:20;;;;;;;;;;;1.60;80.40;;;;;;5043630;28;87093;-39
2022/12/14 07:18:46;;;;;;;;;;;1.50;80.50;;;;;;5043942;28;87392;-39
2022/12/14 07:21:12;;;;;;;;;;;1.60;80.40;;;;;;5042933;28;89121;-39
2022/12/14 07:23:39;;;;;;;;;;;1.50;80.50;;;;;;5043322;28;87413;-39
2022/12/14 07:26:09;;;;;;;;;;;1.50;80.40;;;;;;5045245;28;88703;-39
2022/12/14 07:28:36;;;;;;;;;;;1.60;80.40;;;;;;5043192;28;87030;-39
2022/12/14 07:31:02;;;;;;;;;;;1.60;80.50;;;;;;5042995;28;88770;-39
2022/12/14 07:33:27;;;;;;;;;;;1.60;80.40;;;;;;5042813;28;87849;-39
2022/12/14 07:36:02;;;;;;;;;;;1.60;80.40;;;;;;5043084;28;87037;-39
2022/12/14 07:38:27;;;;;;;;;;;1.50;80.40;;;;;;5042936;28;88675;-39
2022/12/14 07:40:53;;;;;;;;;;;1.50;80.50;;;;;;5042587;28;87167;-39
2022/12/14 07:43:18;;;;;;;;;;;1.60;80.30;;;;;;5043467;28;86415;-39
2022/12/14 07:45:44;;;;;;;;;;;1.60;80.20;;;;;;5043190;28;87163;-39
2022/12/14 07:48:09;;;;;;;;;;;1.50;80.40;;;;;;5045331;28;89468;-39
2022/12/14 07:50:35;;;;;;;;;;;1.50;80.40;;;;;;5041954;28;88027;-39
2022/12/14 07:53:00;;;;;;;;;;;1.50;80.40;;;;;;5042601;28;88054;-39
2022/12/14 07:55:26;;;;;;;;;;;1.50;80.40;;;;;;5042924;28;87032;-39
2022/12/14 07:57:51;;;;;;;;;;;1.50;80.30;;;;;;5043034;28;86992;-39
2022/12/14 08:00:17;;;;;;;;;;;1.50;80.50;;;;;;5042661;28;87947;-39
2022/12/14 08:02:42;;;;;;;;;;;1.50;80.50;;;;;;5042824;28;87077;-39
2022/12/14 08:05:08;;;;;;;;;;;1.60;80.50;;;;;;5042445;28;88627;-39
2022/12/14 08:07:34;;;;;;;;;;;1.50;80.50;;;;;;5043193;28;86685;-39
2022/12/14 08:09:59;;;;;;;;;;;1.50;80.40;;;;;;5045249;28;87118;-39
2022/12/14 08:12:25;;;;;;;;;;;1.50;80.50;;;;;;5041736;28;87977;-39
2022/12/14 08:14:50;;;;;;;;;;;1.50;80.60;;;;;;5042120;28;87986;-39
2022/12/14 08:17:16;;;;;;;;;;;1.50;80.60;;;;;;5042331;28;89907;-39
2022/12/14 08:19:41;;;;;;;;;;;1.50;80.60;;;;;;5042334;28;87191;-39
2022/12/14 08:22:07;;;;;;;;;;;1.50;80.50;;;;;;5042339;28;87524;-39
2022/12/14 08:24:32;;;;;;;;;;;1.50;80.60;;;;;;5042848;28;87528;-39
2022/12/14 08:26:58;;;;;;;;;;;1.50;80.60;;;;;;5042270;28;88055;-39
2022/12/14 08:29:23;;;;;;;;;;;1.50;80.40;;;;;;5042673;28;87072;-39
2022/12/14 08:31:49;;;;;;;;;;;1.50;80.60;;;;;;5045523;28;87371;-39
2022/12/14 08:34:20;;;;;;;;;;;1.50;80.60;;;;;;5042677;28;87154;-39
2022/12/14 08:36:46;;;;;;;;;;;1.50;80.60;;;;;;5042318;28;87272;-39
2022/12/14 08:39:12;;;;;;;;;;;1.50;80.70;;;;;;5041202;28;88978;-39
2022/12/14 08:41:37;;;;;;;;;;;1.50;80.70;;;;;;5042171;28;87051;-39
2022/12/14 08:44:03;;;;;;;;;;;1.50;80.70;;;;;;5042359;28;87165;-39
2022/12/14 08:46:30;;;;;;;;;;;1.50;80.70;;;;;;5041980;28;87991;-39
2022/12/14 08:48:56;;;;;;;;;;;1.50;80.90;;;;;;5042156;28;86988;-39
2022/12/14 08:51:22;;;;;;;;;;;1.50;80.80;;;;;;5041751;28;87250;-39
2022/12/14 08:53:48;;;;;;;;;;;1.50;80.90;;;;;;5044703;28;87684;-39
2022/12/14 08:56:17;;;;;;;;;;;1.50;80.80;;;;;;5042597;28;87547;-39
2022/12/14 08:58:43;;;;;;;;;;;1.50;80.70;;;;;;5041816;28;87237;-39
2022/12/14 09:01:12;;;;;;;;;;;1.50;80.70;;;;;;5042248;28;87597;-39
2022/12/14 09:03:37;;;;;;;;;;;1.50;80.70;;;;;;5041090;28;89259;-39
2022/12/14 09:06:04;;;;;;;;;;;1.50;80.80;;;;;;5041559;28;88268;-39
2022/12/14 09:08:30;;;;;;;;;;;1.50;80.90;;;;;;5041760;28;87142;-39
2022/12/14 09:10:56;;;;;;;;;;;1.50;80.80;;;;;;5041871;28;87397;-39
2022/12/14 09:13:21;;;;;;;;;;;1.50;80.80;;;;;;5041697;28;88097;-39
2022/12/14 09:15:54;;;;;;;;;;;1.50;80.80;;;;;;5045034;28;86906;-39
2022/12/14 09:18:20;;;;;;;;;;;1.50;80.90;;;;;;5041593;28;88260;-39
2022/12/14 09:20:45;;;;;;;;;;;1.50;80.90;;;;;;5042488;28;86285;-39
2022/12/14 09:23:11;;;;;;;;;;;1.50;80.90;;;;;;5041931;28;87097;-39
2022/12/14 09:25:36;;;;;;;;;;;1.50;80.90;;;;;;5043888;28;87923;-39
2022/12/14 09:28:02;;;;;;;;;;;1.50;80.90;;;;;;5044575;28;88495;-39
2022/12/14 09:30:27;;;;;;;;;;;1.50;80.90;;;;;;5045096;28;88633;-39
2022/12/14 09:32:53;;;;;;;;;;;1.50;80.90;;;;;;5044759;28;88245;-39
2022/12/14 09:35:19;;;;;;;;;;;1.50;80.90;;;;;;5048014;28;87191;-39
2022/12/14 09:37:45;;;;;;;;;;;1.50;81.50;;;;;;5044975;28;89375;-39
2022/12/14 09:40:12;;;;;;;;;;;1.50;80.90;;;;;;5044251;28;87128;-39
2022/12/14 09:42:46;;;;;;;;;;;1.50;81.00;;;;;;5045038;28;87414;-39
2022/12/14 09:45:16;;;;;;;;;;;1.50;81.00;;;;;;5044771;28;88583;-39
2022/12/14 09:47:49;;;;;;;;;;;1.50;80.90;;;;;;5044488;28;87128;-39
2022/12/14 09:50:17;;;;;;;;;;;1.50;81.00;;;;;;5044863;28;87489;-39
2022/12/14 09:52:43;;;;;;;;;;;1.50;80.90;;;;;;5043624;28;88938;-39
2022/12/14 09:55:17;;;;;;;;;;;1.50;81.10;;;;;;5044837;28;87090;-39
2022/12/14 09:57:44;;;;;;;;;;;1.50;81.70;;;;;;5047249;28;87317;-39
2022/12/14 10:00:13;;;;;;;;;;;1.50;81.10;;;;;;5044485;28;87200;-39
2022/12/14 10:02:49;;;;;;;;;;;1.50;81.10;;;;;;5026451;28;87423;-39
2022/12/14 10:05:23;;;;;;;;;;;1.50;81.10;;;;;;5044050;28;89377;-39
2022/12/14 10:07:55;;;;;;;;;;;1.50;81.00;;;;;;5044684;28;86943;-39
2022/12/14 10:10:23;;;;;;;;;;;1.50;81.00;;;;;;5045066;28;87811;-39
2022/12/14 10:13:07;;;;;;;;;;;1.50;81.00;;;;;;5043848;28;87968;-39
2022/12/14 10:15:49;;;;;;;;;;;1.50;81.10;;;;;;5044448;28;87319;-39
2022/12/14 10:18:33;;;;;;;;;;;1.50;81.10;;;;;;5044096;28;87805;-39
2022/12/14 10:20:58;;;;;;;;;;;1.50;81.10;;;;;;5046878;28;88234;-39
2022/12/14 10:23:25;;;;;;;;;;;1.50;81.10;;;;;;5044094;28;87054;-39
2022/12/14 10:25:53;;;;;;;;;;;1.50;81.10;;;;;;5043739;28;89551;-39
2022/12/14 10:28:41;;;;;;;;;;;1.50;81.20;;;;;;5044318;28;87043;-39
2022/12/14 10:31:10;;;;;;;;;;;1.50;81.10;;;;;;5030560;28;87397;-39
2022/12/14 10:33:38;;;;;;;;;;;1.50;81.20;;;;;;5043607;28;88176;-39
2022/12/14 10:36:08;;;;;;;;;;;1.50;81.10;;;;;;5044022;27;86354;-39
2022/12/14 10:38:38;;;;;;;;;;;1.50;81.30;;;;;;5043783;28;87049;-39
2022/12/14 10:41:14;;;;;;;;;;;1.50;81.20;;;;;;5043121;28;88123;-39
2022/12/14 10:43:44;;;;;;;;;;;1.50;81.30;;;;;;5046072;28;88048;-39
2022/12/14 10:46:09;;;;;;;;;;;1.50;81.20;;;;;;5043437;28;87955;-39
2022/12/14 10:48:38;;;;;;;;;;;1.50;81.30;;;;;;5044002;28;87199;-39
2022/12/14 10:51:04;;;;;;;;;;;1.50;81.30;;;;;;5043574;28;88795;-39
2022/12/14 10:53:38;;;;;;;;;;;1.50;81.30;;;;;;5043691;28;88046;-39
2022/12/14 10:56:07;;;;;;;;;;;1.50;81.50;;;;;;5043828;28;87327;-39
2022/12/14 10:58:33;;;;;;;;;;;1.50;81.30;;;;;;5043600;28;87077;-39
2022/12/14 11:00:59;;;;;;;;;;;1.50;81.30;;;;;;5043605;28;87696;-39
2022/12/14 11:03:24;;;;;;;;;;;1.50;81.40;;;;;;5043760;28;87121;-39
2022/12/14 11:05:58;;;;;;;;;;;1.50;81.40;;;;;;5046289;28;87675;-39
2022/12/14 11:08:43;;;;;;;;;;;1.50;81.50;;;;;;5042970;28;88114;-39
2022/12/14 11:11:12;;;;;;;;;;;1.50;81.40;;;;;;5043169;28;89902;-39
2022/12/14 11:13:38;;;;;;;;;;;1.50;81.40;;;;;;5042915;28;87968;-39
2022/12/14 11:16:36;;;;;;;;;;;1.50;81.50;;;;;;5043565;28;87111;-39
2022/12/14 11:19:02;;;;;;;;;;;1.50;81.50;;;;;;4987333;28;87919;-39
2022/12/14 11:21:35;;;;;;;;;;;1.50;81.40;;;;;;5043022;28;87568;-39
2022/12/14 11:24:02;;;;;;;;;;;1.50;81.50;;;;;;5043018;28;87185;-39
2022/12/14 11:26:32;;;;;;;;;;;1.50;81.50;;;;;;5046451;28;88875;-39
2022/12/14 11:28:59;;;;;;;;;;;1.50;81.70;;;;;;5043102;28;87128;-40
2022/12/14 11:31:28;;;;;;;;;;;1.50;81.60;;;;;;5043376;28;87639;-39
2022/12/14 11:33:54;;;;;;;;;;;1.50;81.70;;;;;;5042320;28;88971;-40
2022/12/14 11:36:23;;;;;;;;;;;1.50;81.60;;;;;;5042928;27;87149;-40
2022/12/14 11:38:59;;;;;;;;;;;1.50;81.70;;;;;;5043408;28;87360;-39
2022/12/14 11:41:30;;;;;;;;;;;1.50;81.80;;;;;;5042443;28;88709;-39
2022/12/14 11:44:03;;;;;;;;;;;1.50;81.80;;;;;;5043294;28;87290;-39
2022/12/14 11:46:41;;;;;;;;;;;1.50;81.80;;;;;;5042741;28;87769;-40
2022/12/14 11:49:18;;;;;;;;;;;1.50;81.70;;;;;;5044565;28;89275;-39
2022/12/14 11:51:57;;;;;;;;;;;1.50;81.80;;;;;;5043377;28;87505;-39
2022/12/14 11:54:23;;;;;;;;;;;1.50;81.80;;;;;;5042485;28;87904;-40
2022/12/14 11:56:49;;;;;;;;;;;1.50;81.80;;;;;;5042946;28;87020;-39
2022/12/14 11:59:15;;;;;;;;;;;1.50;81.80;;;;;;5042075;28;88737;-39
2022/12/14 12:01:41;;;;;;;;;;;1.50;81.80;;;;;;5042156;28;88075;-39
2022/12/14 12:04:11;;;;;;;;;;;1.50;81.80;;;;;;5042573;28;87134;-40
2022/12/14 12:06:36;;;;;;;;;;;1.50;81.80;;;;;;5042656;28;86875;-40
2022/12/14 12:09:07;;;;;;;;;;;1.50;82.00;;;;;;5042375;28;88300;-39
2022/12/14 12:11:33;;;;;;;;;;;1.50;82.00;;;;;;5045754;28;86961;-40
2022/12/14 12:14:06;;;;;;;;;;;1.50;81.90;;;;;;5042064;28;89204;-39
2022/12/14 12:16:32;;;;;;;;;;;1.50;82.00;;;;;;5043330;28;86350;-39
2022/12/14 12:19:27;;;;;;;;;;;1.50;82.00;;;;;;5042497;28;88120;-39
2022/12/14 12:21:53;;;;;;;;;;;1.50;81.90;;;;;;5019670;28;89521;-39
2022/12/14 12:24:27;;;;;;;;;;;1.50;81.90;;;;;;5041532;28;88048;-40
2022/12/14 12:26:53;;;;;;;;;;;1.50;81.80;;;;;;5042337;28;87495;-39
2022/12/14 12:29:36;;;;;;;;;;;1.50;81.90;;;;;;5042207;28;88166;-40
2022/12/14 12:32:09;;;;;;;;;;;1.50;81.90;;;;;;5042253;28;87103;-39
2022/12/14 12:34:37;;;;;;;;;;;1.50;81.90;;;;;;5044934;28;87535;-39
2022/12/14 12:37:08;;;;;;;;;;;1.50;82.00;;;;;;5042305;28;87133;-40
2022/12/14 12:39:35;;;;;;;;;;;1.50;82.10;;;;;;5042163;28;87383;-39
2022/12/14 12:42:16;;;;;;;;;;;1.50;82.00;;;;;;5042499;28;88800;-40
2022/12/14 12:44:55;;;;;;;;;;;1.50;81.90;;;;;;5042319;28;87005;-39
2022/12/14 12:47:41;;;;;;;;;;;1.50;82.10;;;;;;5042089;28;87478;-39
2022/12/14 12:50:12;;;;;;;;;;;1.50;82.00;;;;;;5040802;28;88936;-39
2022/12/14 12:52:56;;;;;;;;;;;1.60;82.20;;;;;;5042190;28;87242;-40
2022/12/14 12:55:23;;;;;;;;;;;1.50;82.10;;;;;;5042313;28;87349;-39
2022/12/14 12:57:50;;;;;;;;;;;1.50;82.00;;;;;;5044629;28;88096;-40
2022/12/14 13:00:18;;;;;;;;;;;1.50;82.00;;;;;;5027122;28;90699;-40
2022/12/14 13:02:46;;;;;;;;;;;1.50;82.10;;;;;;5045402;28;87453;-39
2022/12/14 13:05:17;;;;;;;;;;;1.50;82.10;;;;;;5045352;28;87105;-40
2022/12/14 13:07:51;;;;;;;;;;;1.50;82.20;;;;;;5046045;28;88432;-40
2022/12/14 13:10:21;;;;;;;;;;;1.50;82.10;;;;;;5044905;28;88031;-40
2022/12/14 13:12:47;;;;;;;;;;;1.50;82.10;;;;;;5045350;28;87110;-39
2022/12/14 13:15:33;;;;;;;;;;;1.50;82.20;;;;;;5044723;28;88985;-39
2022/12/14 13:18:03;;;;;;;;;;;1.50;82.00;;;;;;5026721;28;87928;-40
2022/12/14 13:20:30;;;;;;;;;;;1.50;82.20;;;;;;5048278;28;87079;-39
2022/12/14 13:22:56;;;;;;;;;;;1.50;82.20;;;;;;5044835;28;87361;-40
2022/12/14 13:25:30;;;;;;;;;;;1.50;82.10;;;;;;5045123;27;87106;-40
2022/12/14 13:27:59;;;;;;;;;;;1.50;82.20;;;;;;5045341;28;87533;-39
2022/12/14 13:30:34;;;;;;;;;;;1.60;82.00;;;;;;5044948;28;87868;-39
2022/12/14 13:33:18;;;;;;;;;;;1.50;82.00;;;;;;5045842;27;86255;-40
2022/12/14 13:35:46;;;;;;;;;;;1.50;82.10;;;;;;5044816;28;88049;-39
2022/12/14 13:38:20;;;;;;;;;;;1.50;82.00;;;;;;5044664;28;88233;-39
2022/12/14 13:40:53;;;;;;;;;;;1.60;82.10;;;;;;5046966;28;87968;-40
2022/12/14 13:43:19;;;;;;;;;;;1.50;82.00;;;;;;5044647;28;87285;-39
2022/12/14 13:45:46;;;;;;;;;;;1.60;82.10;;;;;;5044943;28;87153;-39
2022/12/14 13:48:22;;;;;;;;;;;1.60;82.00;;;;;;5044436;28;88936;-39
2022/12/14 13:50:52;;;;;;;;;;;1.60;82.00;;;;;;5043891;28;89161;-39
2022/12/14 13:53:24;;;;;;;;;;;1.60;82.00;;;;;;5044817;28;87021;-39
2022/12/14 13:55:54;;;;;;;;;;;1.60;82.00;;;;;;5045028;28;86987;-39
2022/12/14 13:58:23;;;;;;;;;;;1.60;82.10;;;;;;5044883;28;86563;-39
2022/12/14 14:00:53;;;;;;;;;;;1.60;82.00;;;;;;5044520;28;87155;-39
2022/12/14 14:03:33;;;;;;;;;;;1.60;82.00;;;;;;5047375;28;87382;-40
2022/12/14 14:06:19;;;;;;;;;;;1.60;82.00;;;;;;5043990;28;88150;-40
2022/12/14 14:08:53;;;;;;;;;;;1.50;81.90;;;;;;4992546;28;88327;-39
2022/12/14 14:11:21;;;;;;;;;;;1.60;82.00;;;;;;5043190;28;88207;-40
2022/12/14 14:13:47;;;;;;;;;;;1.60;82.00;;;;;;5044238;28;87189;-39
2022/12/14 14:16:14;;;;;;;;;;;1.60;82.00;;;;;;5044581;28;87223;-40
2022/12/14 14:18:54;;;;;;;;;;;1.60;82.20;;;;;;5043909;28;88041;-39
2022/12/14 14:21:20;;;;;;;;;;;1.60;82.00;;;;;;5044561;28;87063;-39
2022/12/14 14:23:54;;;;;;;;;;;1.60;82.30;;;;;;5044599;28;87432;-40
2022/12/14 14:26:21;;;;;;;;;;;1.60;82.10;;;;;;5046575;28;88711;-40
2022/12/14 14:28:51;;;;;;;;;;;1.60;82.20;;;;;;5044199;28;87481;-39
2022/12/14 14:31:16;;;;;;;;;;;1.60;82.20;;;;;;5043144;28;89012;-39
2022/12/14 14:33:49;;;;;;;;;;;1.60;82.20;;;;;;5044150;28;86948;-40
2022/12/14 14:36:24;;;;;;;;;;;1.50;82.20;;;;;;5044002;28;87302;-39
2022/12/14 14:38:49;;;;;;;;;;;1.60;82.10;;;;;;5043810;28;88423;-39
2022/12/14 14:41:41;;;;;;;;;;;1.60;82.10;;;;;;5043880;28;87087;-39
2022/12/14 14:44:14;;;;;;;;;;;1.60;82.10;;;;;;5039155;28;87417;-39
2022/12/14 14:46:41;;;;;;;;;;;1.60;82.10;;;;;;5025646;28;88192;-39
2022/12/14 14:49:18;;;;;;;;;;;1.60;82.10;;;;;;5047549;28;86410;-40
2022/12/14 14:51:43;;;;;;;;;;;1.60;82.10;;;;;;5043337;28;88196;-39
2022/12/14 14:54:14;;;;;;;;;;;1.60;82.10;;;;;;5043995;28;87103;-40